Time;durP1;ratioP1;P1;durP2;ratioP2;P2;SDS_P1;SDS_P2;PMS_P1;PMS_P2;Temp;Humidity;BMP_temperature;BMP_pressure;BME280_temperature;BME280_humidity;BME280_pressure;Samples;Min_cycle;Max_cycle;Signal;HPM_P1;HPM_P2
2022/08/21 00:01:16;;;;;;;4.10;1.50;;;;;;;;;;5011500;28;20474;-71
2022/08/21 00:03:43;;;;;;;3.30;1.60;;;;;;;;;;5010644;28;20491;-71
2022/08/21 00:06:10;;;;;;;3.87;2.00;;;;;;;;;;5012028;28;20467;-71
2022/08/21 00:08:38;;;;;;;2.83;1.47;;;;;;;;;;5010851;28;20497;-71
2022/08/21 00:11:05;;;;;;;4.43;1.97;;;;;;;;;;5011427;28;20495;-71
2022/08/21 00:13:32;;;;;;;8.30;1.87;;;;;;;;;;5011792;28;20460;-70
2022/08/21 00:16:01;;;;;;;7.27;1.63;;;;;;;;;;5011692;28;20783;-71
2022/08/21 00:18:28;;;;;;;3.90;2.03;;;;;;;;;;5011508;28;20455;-71
2022/08/21 00:20:55;;;;;;;6.70;1.87;;;;;;;;;;5010478;28;20734;-71
2022/08/21 00:23:23;;;;;;;3.83;1.87;;;;;;;;;;5012177;28;20490;-71
2022/08/21 00:25:50;;;;;;;4.37;1.90;;;;;;;;;;5011841;28;20493;-71
2022/08/21 00:28:17;;;;;;;4.30;1.80;;;;;;;;;;5013073;28;20553;-71
2022/08/21 00:30:45;;;;;;;3.10;1.80;;;;;;;;;;5011451;28;20683;-71
2022/08/21 00:33:13;;;;;;;5.70;1.87;;;;;;;;;;5010867;28;20459;-71
2022/08/21 00:35:41;;;;;;;7.47;2.17;;;;;;;;;;5011051;28;20510;-71
2022/08/21 00:38:08;;;;;;;4.93;2.10;;;;;;;;;;5011778;28;20625;-71
2022/08/21 00:40:36;;;;;;;5.33;2.27;;;;;;;;;;5010567;28;20534;-71
2022/08/21 00:43:04;;;;;;;3.37;2.63;;;;;;;;;;5010364;28;20752;-71
2022/08/21 00:45:33;;;;;;;3.17;1.80;;;;;;;;;;5010558;28;20877;-70
2022/08/21 00:48:04;;;;;;;3.30;2.07;;;;;;;;;;5011015;28;20521;-70
2022/08/21 00:50:33;;;;;;;8.50;1.90;;;;;;;;;;5010851;28;20453;-70
2022/08/21 00:53:04;;;;;;;4.27;2.07;;;;;;;;;;5011162;28;20507;-70
2022/08/21 00:55:32;;;;;;;4.50;2.20;;;;;;;;;;5010485;28;20861;-70
2022/08/21 00:58:03;;;;;;;6.80;2.30;;;;;;;;;;5010845;28;20789;-70
2022/08/21 01:00:33;;;;;;;2.93;1.57;;;;;;;;;;5010255;28;20459;-70
2022/08/21 01:03:02;;;;;;;5.27;1.67;;;;;;;;;;5011021;28;20540;-70
2022/08/21 01:05:29;;;;;;;4.33;2.00;;;;;;;;;;5011569;28;20463;-71
2022/08/21 01:07:57;;;;;;;3.07;2.10;;;;;;;;;;5011467;28;20551;-70
2022/08/21 01:10:24;;;;;;;3.73;1.80;;;;;;;;;;5010999;28;20763;-70
2022/08/21 01:12:51;;;;;;;2.83;1.70;;;;;;;;;;5010988;28;20700;-70
2022/08/21 01:15:20;;;;;;;5.50;2.23;;;;;;;;;;5009775;28;20539;-70
2022/08/21 01:17:47;;;;;;;4.63;2.37;;;;;;;;;;5012054;28;20467;-70
2022/08/21 01:20:14;;;;;;;4.40;2.13;;;;;;;;;;5009576;28;20508;-70
2022/08/21 01:22:42;;;;;;;3.30;1.60;;;;;;;;;;5010123;28;20451;-70
2022/08/21 01:25:10;;;;;;;3.50;1.50;;;;;;;;;;5010885;28;20494;-70
2022/08/21 01:27:37;;;;;;;4.00;2.07;;;;;;;;;;5010792;28;20494;-70
2022/08/21 01:30:08;;;;;;;2.93;2.40;;;;;;;;;;5010942;28;20705;-70
2022/08/21 01:32:36;;;;;;;2.43;1.53;;;;;;;;;;5010009;28;20455;-70
2022/08/21 01:35:04;;;;;;;3.40;1.80;;;;;;;;;;5009469;28;20596;-70
2022/08/21 01:37:31;;;;;;;4.70;2.13;;;;;;;;;;5010953;28;20464;-70
2022/08/21 01:39:59;;;;;;;6.33;2.60;;;;;;;;;;5009254;28;20451;-70
2022/08/21 01:42:26;;;;;;;5.83;1.93;;;;;;;;;;5009685;28;20885;-71
2022/08/21 01:44:53;;;;;;;6.30;1.90;;;;;;;;;;5011262;28;20482;-70
2022/08/21 01:47:20;;;;;;;4.60;1.90;;;;;;;;;;5009916;28;20487;-70
2022/08/21 01:49:47;;;;;;;2.87;1.97;;;;;;;;;;5010526;28;20558;-70
2022/08/21 01:52:14;;;;;;;5.93;2.00;;;;;;;;;;5010998;28;20733;-70
2022/08/21 01:54:45;;;;;;;6.20;1.83;;;;;;;;;;5009263;28;20456;-71
2022/08/21 01:57:13;;;;;;;3.80;1.67;;;;;;;;;;5010727;28;20527;-70
2022/08/21 01:59:42;;;;;;;3.53;1.43;;;;;;;;;;5010102;28;20455;-70
2022/08/21 02:02:10;;;;;;;3.97;2.47;;;;;;;;;;5009729;28;20474;-70
2022/08/21 02:04:37;;;;;;;3.40;1.87;;;;;;;;;;5011000;28;20516;-71
2022/08/21 02:07:04;;;;;;;4.50;1.77;;;;;;;;;;5009868;28;20580;-70
2022/08/21 02:09:31;;;;;;;5.60;2.60;;;;;;;;;;5009934;28;20490;-70
2022/08/21 02:11:59;;;;;;;6.07;2.17;;;;;;;;;;5010001;28;20485;-70
2022/08/21 02:14:26;;;;;;;6.37;2.13;;;;;;;;;;5010705;28;20452;-70
2022/08/21 02:16:53;;;;;;;6.67;2.27;;;;;;;;;;5010783;28;20472;-70
2022/08/21 02:19:23;;;;;;;5.20;1.90;;;;;;;;;;5008639;28;20463;-70
2022/08/21 02:21:50;;;;;;;5.00;2.20;;;;;;;;;;5009747;28;20447;-70
2022/08/21 02:24:17;;;;;;;4.17;2.37;;;;;;;;;;5009820;28;20502;-70
2022/08/21 02:26:45;;;;;;;4.57;1.93;;;;;;;;;;5009708;28;20969;-70
2022/08/21 02:29:12;;;;;;;5.43;2.30;;;;;;;;;;5009607;28;20503;-70
2022/08/21 02:31:40;;;;;;;3.77;1.70;;;;;;;;;;5010544;28;20705;-70
2022/08/21 02:34:08;;;;;;;3.57;1.80;;;;;;;;;;5009491;28;20528;-70
2022/08/21 02:36:37;;;;;;;3.00;1.83;;;;;;;;;;5010307;28;20455;-71
2022/08/21 02:39:04;;;;;;;5.70;2.40;;;;;;;;;;5009234;28;20471;-70
2022/08/21 02:41:31;;;;;;;3.47;2.03;;;;;;;;;;5009765;28;20846;-70
2022/08/21 02:43:58;;;;;;;3.73;1.87;;;;;;;;;;5009791;28;20475;-70
2022/08/21 02:46:25;;;;;;;5.60;2.17;;;;;;;;;;5010538;28;20475;-70
2022/08/21 02:48:53;;;;;;;3.33;3.00;;;;;;;;;;5008995;28;20951;-70
2022/08/21 02:51:22;;;;;;;5.53;2.40;;;;;;;;;;5010440;28;20458;-70
2022/08/21 02:53:50;;;;;;;4.40;2.53;;;;;;;;;;5010321;28;20737;-70
2022/08/21 02:56:18;;;;;;;10.23;2.23;;;;;;;;;;5010285;28;20725;-70
2022/08/21 02:58:46;;;;;;;2.90;2.10;;;;;;;;;;5010320;28;20560;-70
2022/08/21 03:01:14;;;;;;;4.00;2.17;;;;;;;;;;5009039;28;20452;-70
2022/08/21 03:03:42;;;;;;;2.83;1.90;;;;;;;;;;5010083;28;20945;-70
2022/08/21 03:06:12;;;;;;;10.60;2.20;;;;;;;;;;5009035;28;20453;-70
2022/08/21 03:08:39;;;;;;;3.57;1.63;;;;;;;;;;5008838;28;20498;-70
2022/08/21 03:11:07;;;;;;;3.07;2.00;;;;;;;;;;5009163;28;20772;-70
2022/08/21 03:13:34;;;;;;;4.00;2.23;;;;;;;;;;5009802;28;20962;-70
2022/08/21 03:16:01;;;;;;;6.53;2.10;;;;;;;;;;5008534;28;20487;-70
2022/08/21 03:18:28;;;;;;;6.27;2.20;;;;;;;;;;5008915;28;20960;-70
2022/08/21 03:20:55;;;;;;;2.53;2.00;;;;;;;;;;5009700;28;20743;-70
2022/08/21 03:23:23;;;;;;;3.73;1.87;;;;;;;;;;5008523;28;20551;-70
2022/08/21 03:25:50;;;;;;;6.30;2.97;;;;;;;;;;5009274;28;20459;-70
2022/08/21 03:28:19;;;;;;;4.10;1.97;;;;;;;;;;5009793;28;20518;-70
2022/08/21 03:30:50;;;;;;;7.30;3.43;;;;;;;;;;5008652;28;20901;-70
2022/08/21 03:33:18;;;;;;;5.63;2.00;;;;;;;;;;5009525;28;20482;-70
2022/08/21 03:35:46;;;;;;;3.03;2.00;;;;;;;;;;5009041;28;20447;-70
2022/08/21 03:38:13;;;;;;;4.00;2.37;;;;;;;;;;5009909;28;20809;-70
2022/08/21 03:40:41;;;;;;;3.97;2.23;;;;;;;;;;5008981;28;20696;-70
2022/08/21 03:43:09;;;;;;;4.63;2.60;;;;;;;;;;5009777;28;20462;-70
2022/08/21 03:45:36;;;;;;;3.87;2.33;;;;;;;;;;5009609;28;20455;-70
2022/08/21 03:48:04;;;;;;;3.93;2.60;;;;;;;;;;5008284;28;20956;-71
2022/08/21 03:50:33;;;;;;;2.87;2.03;;;;;;;;;;5008931;28;20881;-70
2022/08/21 03:53:00;;;;;;;3.03;2.10;;;;;;;;;;5008552;28;20459;-70
2022/08/21 03:55:27;;;;;;;3.93;2.30;;;;;;;;;;5010295;28;20869;-70
2022/08/21 03:57:55;;;;;;;2.53;2.00;;;;;;;;;;5008478;28;20465;-71
2022/08/21 04:00:26;;;;;;;4.20;2.47;;;;;;;;;;5008951;28;20927;-71
2022/08/21 04:02:53;;;;;;;3.10;2.40;;;;;;;;;;5007659;28;20592;-71
2022/08/21 04:05:27;;;;;;;3.17;2.33;;;;;;;;;;5009868;28;20470;-70
2022/08/21 04:07:54;;;;;;;7.93;3.07;;;;;;;;;;5009577;28;20569;-70
2022/08/21 04:10:23;;;;;;;3.10;2.03;;;;;;;;;;5008871;28;20550;-70
2022/08/21 04:12:50;;;;;;;4.70;2.40;;;;;;;;;;5008758;28;20534;-70
2022/08/21 04:15:18;;;;;;;4.57;2.27;;;;;;;;;;5008277;28;20475;-70
2022/08/21 04:17:45;;;;;;;4.60;1.93;;;;;;;;;;5008942;28;20478;-70
2022/08/21 04:20:13;;;;;;;3.27;2.30;;;;;;;;;;5011846;28;20459;-70
2022/08/21 04:22:44;;;;;;;5.43;2.10;;;;;;;;;;5011194;28;20473;-70
2022/08/21 04:25:11;;;;;;;5.47;2.20;;;;;;;;;;5012387;28;20467;-70
2022/08/21 04:27:39;;;;;;;4.57;2.47;;;;;;;;;;5011580;28;20549;-70
2022/08/21 04:30:06;;;;;;;4.53;2.77;;;;;;;;;;5011987;28;20459;-70
2022/08/21 04:32:34;;;;;;;4.43;3.10;;;;;;;;;;5011927;28;20849;-70
2022/08/21 04:35:03;;;;;;;3.40;1.90;;;;;;;;;;5011929;28;20532;-70
2022/08/21 04:37:31;;;;;;;2.90;2.00;;;;;;;;;;5006669;28;20559;-70
2022/08/21 04:39:58;;;;;;;2.17;1.60;;;;;;;;;;4992083;28;20780;-70
2022/08/21 04:42:25;;;;;;;6.00;2.73;;;;;;;;;;4992140;28;20482;-70
2022/08/21 04:44:52;;;;;;;6.07;2.90;;;;;;;;;;4993018;28;20464;-70
2022/08/21 04:47:19;;;;;;;6.50;2.80;;;;;;;;;;4992665;28;20499;-70
2022/08/21 04:49:48;;;;;;;3.17;1.80;;;;;;;;;;4991386;28;20944;-70
2022/08/21 04:52:16;;;;;;;4.37;2.47;;;;;;;;;;4991851;28;20564;-70
2022/08/21 04:54:44;;;;;;;5.10;2.10;;;;;;;;;;4992555;28;20467;-70
2022/08/21 04:57:15;;;;;;;3.47;2.00;;;;;;;;;;4992433;28;20535;-70
2022/08/21 04:59:44;;;;;;;5.37;2.47;;;;;;;;;;4991643;28;20527;-70
2022/08/21 05:02:12;;;;;;;4.13;2.40;;;;;;;;;;4992041;28;20444;-70
2022/08/21 05:04:42;;;;;;;5.90;2.50;;;;;;;;;;4991510;28;20609;-70
2022/08/21 05:07:18;;;;;;;3.60;1.93;;;;;;;;;;4990988;28;20499;-70
2022/08/21 05:09:45;;;;;;;4.07;2.17;;;;;;;;;;4992333;28;20467;-70
2022/08/21 05:12:12;;;;;;;4.23;2.27;;;;;;;;;;4990427;28;20472;-69
2022/08/21 05:14:39;;;;;;;4.50;2.43;;;;;;;;;;4991861;28;20464;-69
2022/08/21 05:17:06;;;;;;;4.40;2.20;;;;;;;;;;4990613;28;20552;-70
2022/08/21 05:19:34;;;;;;;4.00;2.40;;;;;;;;;;4990471;28;20479;-70
2022/08/21 05:22:01;;;;;;;4.43;1.93;;;;;;;;;;4989750;28;20460;-70
2022/08/21 05:24:32;;;;;;;5.20;2.23;;;;;;;;;;4992060;28;20529;-71
2022/08/21 05:26:59;;;;;;;3.93;2.23;;;;;;;;;;4991367;28;20499;-71
2022/08/21 05:29:26;;;;;;;3.80;1.90;;;;;;;;;;4990593;28;20453;-71
2022/08/21 05:31:59;;;;;;;5.53;2.30;;;;;;;;;;4999256;28;20774;-71
2022/08/21 05:34:26;;;;;;;2.77;1.90;;;;;;;;;;5012086;28;20452;-71
2022/08/21 05:36:54;;;;;;;6.87;2.90;;;;;;;;;;5011037;28;20624;-71
2022/08/21 05:39:21;;;;;;;3.10;1.80;;;;;;;;;;5010315;28;20881;-70
2022/08/21 05:41:49;;;;;;;3.40;2.13;;;;;;;;;;5011201;28;20464;-71
2022/08/21 05:44:16;;;;;;;6.80;2.13;;;;;;;;;;5010574;28;20543;-71
2022/08/21 05:46:43;;;;;;;7.80;1.97;;;;;;;;;;5011878;28;20463;-71
2022/08/21 05:49:10;;;;;;;5.30;2.50;;;;;;;;;;5111751;28;20908;-71
2022/08/21 05:51:37;;;;;;;3.20;2.03;;;;;;;;;;5112940;28;20458;-71
2022/08/21 05:54:04;;;;;;;5.83;1.97;;;;;;;;;;5113126;28;20452;-71
2022/08/21 05:56:31;;;;;;;5.00;2.00;;;;;;;;;;5021317;28;20468;-70
2022/08/21 05:58:59;;;;;;;4.10;1.60;;;;;;;;;;4990170;28;20469;-70
2022/08/21 06:01:27;;;;;;;5.33;1.90;;;;;;;;;;4991330;28;20859;-70
2022/08/21 06:03:54;;;;;;;3.50;1.90;;;;;;;;;;4990919;28;20448;-70
2022/08/21 06:06:21;;;;;;;3.30;1.90;;;;;;;;;;4990244;28;20467;-70
2022/08/21 06:08:48;;;;;;;5.43;2.10;;;;;;;;;;4989963;28;20492;-70
2022/08/21 06:11:15;;;;;;;5.00;1.90;;;;;;;;;;4990125;28;20456;-70
2022/08/21 06:13:42;;;;;;;4.00;2.40;;;;;;;;;;4989865;28;20460;-70
2022/08/21 06:16:12;;;;;;;3.90;1.83;;;;;;;;;;4991489;28;20481;-70
2022/08/21 06:18:40;;;;;;;4.10;2.00;;;;;;;;;;4989815;28;20534;-70
2022/08/21 06:21:08;;;;;;;5.47;2.10;;;;;;;;;;4989293;28;20455;-70
2022/08/21 06:23:35;;;;;;;5.67;2.07;;;;;;;;;;4991037;28;20460;-70
2022/08/21 06:26:02;;;;;;;5.33;1.80;;;;;;;;;;4989897;28;20488;-71
2022/08/21 06:28:30;;;;;;;6.80;2.47;;;;;;;;;;4990502;28;20484;-70
2022/08/21 06:30:57;;;;;;;3.50;2.13;;;;;;;;;;4989840;28;20452;-70
2022/08/21 06:33:27;;;;;;;5.30;2.10;;;;;;;;;;4989876;28;20464;-71
2022/08/21 06:35:54;;;;;;;6.80;3.70;;;;;;;;;;4990051;28;20869;-70
2022/08/21 06:38:21;;;;;;;3.50;1.80;;;;;;;;;;4990029;28;20472;-70
2022/08/21 06:40:48;;;;;;;5.30;2.20;;;;;;;;;;4988959;28;20715;-69
2022/08/21 06:43:19;;;;;;;3.30;2.00;;;;;;;;;;4988528;28;20571;-70
2022/08/21 06:45:46;;;;;;;7.67;2.10;;;;;;;;;;4990220;28;20452;-71
2022/08/21 06:48:14;;;;;;;3.80;2.97;;;;;;;;;;5005719;28;20491;-70
2022/08/21 06:50:43;;;;;;;2.53;2.33;;;;;;;;;;5009099;28;20908;-72
2022/08/21 06:53:11;;;;;;;2.93;1.70;;;;;;;;;;5009323;28;20546;-70
2022/08/21 06:55:41;;;;;;;4.37;1.67;;;;;;;;;;5010527;28;20451;-70
2022/08/21 06:58:12;;;;;;;4.67;1.80;;;;;;;;;;5010016;28;20459;-70
2022/08/21 07:00:40;;;;;;;3.43;1.70;;;;;;;;;;5008338;28;20705;-70
2022/08/21 07:03:07;;;;;;;3.20;1.53;;;;;;;;;;5006953;28;20466;-69
2022/08/21 07:05:40;;;;;;;3.17;1.70;;;;;;;;;;5009153;28;20482;-69
2022/08/21 07:08:11;;;;;;;5.77;1.70;;;;;;;;;;5009076;28;21182;-70
2022/08/21 07:10:38;;;;;;;3.60;1.97;;;;;;;;;;5000930;28;20472;-69
2022/08/21 07:13:06;;;;;;;3.67;1.30;;;;;;;;;;4991453;28;20505;-69
2022/08/21 07:15:33;;;;;;;4.07;2.10;;;;;;;;;;4989902;28;20461;-69
2022/08/21 07:18:00;;;;;;;3.53;1.70;;;;;;;;;;4989170;28;20869;-70
2022/08/21 07:20:27;;;;;;;4.13;1.57;;;;;;;;;;4988522;28;20487;-70
2022/08/21 07:22:56;;;;;;;3.23;1.73;;;;;;;;;;4988853;28;20456;-70
2022/08/21 07:25:24;;;;;;;2.90;1.10;;;;;;;;;;4988314;28;20460;-70
2022/08/21 07:27:51;;;;;;;4.67;1.37;;;;;;;;;;4988737;28;20582;-70
2022/08/21 07:30:21;;;;;;;3.03;1.20;;;;;;;;;;4987470;28;20495;-71
2022/08/21 07:32:49;;;;;;;3.53;1.40;;;;;;;;;;4988266;28;20968;-71
2022/08/21 07:35:16;;;;;;;6.43;1.57;;;;;;;;;;4991966;28;20521;-71
2022/08/21 07:37:43;;;;;;;5.10;1.37;;;;;;;;;;4997381;28;20483;-71
2022/08/21 07:40:11;;;;;;;4.93;1.27;;;;;;;;;;4994927;28;20471;-70
2022/08/21 07:42:41;;;;;;;6.13;2.03;;;;;;;;;;5008824;28;20464;-71
2022/08/21 07:45:09;;;;;;;4.20;1.20;;;;;;;;;;5008176;28;20467;-71
2022/08/21 07:47:39;;;;;;;8.00;1.20;;;;;;;;;;5009031;28;20504;-71
2022/08/21 07:50:07;;;;;;;3.60;2.30;;;;;;;;;;5009152;28;20447;-70
2022/08/21 07:52:34;;;;;;;4.20;2.10;;;;;;;;;;5008916;28;20563;-70
2022/08/21 07:55:04;;;;;;;3.90;1.70;;;;;;;;;;5011444;28;20482;-71
2022/08/21 07:57:31;;;;;;;4.73;1.60;;;;;;;;;;5012521;28;20463;-71
2022/08/21 07:59:59;;;;;;;3.10;1.50;;;;;;;;;;5011531;28;20450;-71
2022/08/21 08:02:27;;;;;;;6.87;1.37;;;;;;;;;;5010124;28;20823;-71
2022/08/21 08:04:56;;;;;;;5.23;2.30;;;;;;;;;;5010681;28;20498;-70
2022/08/21 08:07:23;;;;;;;3.87;1.60;;;;;;;;;;5010589;28;20573;-71
2022/08/21 08:09:50;;;;;;;7.00;2.40;;;;;;;;;;5010477;28;20501;-70
2022/08/21 08:12:20;;;;;;;3.87;1.70;;;;;;;;;;5009965;28;20765;-72
2022/08/21 08:14:50;;;;;;;4.03;2.00;;;;;;;;;;5002728;28;20461;-72
2022/08/21 08:17:21;;;;;;;2.53;1.10;;;;;;;;;;4992282;28;20570;-72
2022/08/21 08:19:49;;;;;;;5.13;1.97;;;;;;;;;;4992387;28;20781;-72
2022/08/21 08:22:16;;;;;;;3.67;1.57;;;;;;;;;;4992800;28;20574;-72
2022/08/21 08:24:44;;;;;;;5.03;1.97;;;;;;;;;;4992166;28;20550;-71
2022/08/21 08:27:11;;;;;;;5.53;2.00;;;;;;;;;;4992325;28;20452;-71
2022/08/21 08:29:38;;;;;;;3.80;2.00;;;;;;;;;;4989794;28;20533;-71
2022/08/21 08:32:07;;;;;;;4.03;1.70;;;;;;;;;;4988507;28;20494;-71
2022/08/21 08:34:34;;;;;;;6.07;1.83;;;;;;;;;;4989258;28;20460;-72
2022/08/21 08:37:02;;;;;;;12.10;2.60;;;;;;;;;;4990589;28;20457;-71
2022/08/21 08:39:30;;;;;;;3.73;1.83;;;;;;;;;;4990839;28;20460;-71
2022/08/21 08:42:09;;;;;;;5.43;2.20;;;;;;;;;;4991368;28;20463;-72
2022/08/21 08:44:37;;;;;;;5.77;2.20;;;;;;;;;;4989298;28;20460;-72
2022/08/21 08:47:04;;;;;;;5.80;2.00;;;;;;;;;;4992189;28;20456;-72
2022/08/21 08:49:35;;;;;;;11.20;2.67;;;;;;;;;;4992235;28;20735;-72
2022/08/21 08:52:04;;;;;;;9.77;2.40;;;;;;;;;;4992037;28;20840;-71
2022/08/21 08:54:33;;;;;;;5.27;1.60;;;;;;;;;;4990691;28;20460;-72
2022/08/21 08:57:00;;;;;;;4.27;1.40;;;;;;;;;;4990804;28;20710;-72
2022/08/21 08:59:28;;;;;;;6.20;1.70;;;;;;;;;;4989952;28;20456;-72
2022/08/21 09:01:55;;;;;;;5.27;2.03;;;;;;;;;;4988811;28;20758;-72
2022/08/21 09:04:25;;;;;;;4.80;1.40;;;;;;;;;;4988496;28;20535;-72
2022/08/21 09:06:58;;;;;;;5.30;1.43;;;;;;;;;;4987652;28;20444;-72
2022/08/21 09:09:39;;;;;;;4.23;1.37;;;;;;;;;;4990195;28;20717;-72
2022/08/21 09:12:10;;;;;;;6.13;1.30;;;;;;;;;;4999335;28;20471;-71
2022/08/21 09:14:47;;;;;;;4.60;1.67;;;;;;;;;;4995189;28;20498;-71
2022/08/21 09:17:18;;;;;;;6.70;1.60;;;;;;;;;;5011831;28;20510;-71
2022/08/21 09:19:53;;;;;;;4.77;1.70;;;;;;;;;;5010445;28;20891;-72
2022/08/21 09:22:35;;;;;;;8.03;1.47;;;;;;;;;;5009414;28;20479;-72
2022/08/21 09:25:07;;;;;;;10.03;2.17;;;;;;;;;;5009726;28;20461;-71
2022/08/21 09:27:35;;;;;;;6.60;1.57;;;;;;;;;;4995151;28;20476;-72
2022/08/21 09:30:02;;;;;;;6.83;2.00;;;;;;;;;;5010830;28;20451;-71
2022/08/21 09:32:31;;;;;;;5.93;1.23;;;;;;;;;;5009795;28;20455;-71
2022/08/21 09:34:59;;;;;;;5.00;1.33;;;;;;;;;;5011408;28;20586;-71
2022/08/21 09:37:28;;;;;;;10.93;1.97;;;;;;;;;;5010663;28;20879;-71
2022/08/21 09:39:55;;;;;;;3.70;1.47;;;;;;;;;;5010206;28;20534;-72
2022/08/21 09:42:25;;;;;;;9.17;2.07;;;;;;;;;;5009174;28;20459;-72
2022/08/21 09:45:11;;;;;;;6.67;1.40;;;;;;;;;;5003446;28;20866;-72
2022/08/21 09:47:38;;;;;;;5.00;2.00;;;;;;;;;;4990360;28;20490;-72
2022/08/21 09:50:10;;;;;;;7.07;1.50;;;;;;;;;;4989052;28;20449;-72
2022/08/21 09:52:43;;;;;;;4.67;1.60;;;;;;;;;;5004181;28;20448;-73
2022/08/21 09:57:38;;;;;;;6.57;1.70;;;;;;;;;;5009120;28;20471;-71
2022/08/21 09:58:09;;;;;;;5.60;1.50;;;;;;;;;;5008571;28;20447;-72
2022/08/21 10:00:37;;;;;;;6.07;2.37;;;;;;;;;;5006924;28;21067;-73
2022/08/21 10:03:15;;;;;;;7.20;1.97;;;;;;;;;;4992340;28;20477;-72
2022/08/21 10:05:51;;;;;;;7.93;1.50;;;;;;;;;;4996951;28;21013;-73
2022/08/21 10:08:19;;;;;;;5.70;1.40;;;;;;;;;;4998268;28;20509;-73
2022/08/21 10:10:47;;;;;;;10.73;2.60;;;;;;;;;;4993744;28;20483;-73
2022/08/21 10:13:19;;;;;;;11.33;1.57;;;;;;;;;;4992204;28;20467;-73
2022/08/21 10:15:50;;;;;;;10.93;1.93;;;;;;;;;;5006664;28;20487;-72
2022/08/21 10:18:22;;;;;;;6.43;1.87;;;;;;;;;;5007164;28;20480;-72
2022/08/21 10:20:57;;;;;;;4.90;1.40;;;;;;;;;;5011012;28;20861;-73
2022/08/21 10:23:39;;;;;;;5.10;1.60;;;;;;;;;;5007257;28;20730;-73
2022/08/21 10:26:14;;;;;;;4.47;1.60;;;;;;;;;;5007732;28;20715;-73
2022/08/21 10:28:53;;;;;;;9.50;1.90;;;;;;;;;;5006958;28;20486;-73
2022/08/21 10:31:27;;;;;;;7.10;2.10;;;;;;;;;;5010286;28;20550;-73
2022/08/21 10:34:09;;;;;;;6.13;2.30;;;;;;;;;;5009235;28;20774;-73
2022/08/21 10:36:40;;;;;;;5.57;1.60;;;;;;;;;;5010013;28;21095;-72
2022/08/21 10:39:15;;;;;;;6.30;2.13;;;;;;;;;;5009795;28;20989;-72
2022/08/21 10:41:48;;;;;;;7.07;1.40;;;;;;;;;;5005225;28;20470;-71
2022/08/21 10:44:25;;;;;;;8.13;2.80;;;;;;;;;;5009154;28;20470;-72
2022/08/21 10:46:55;;;;;;;5.87;2.27;;;;;;;;;;5008725;28;20859;-70
2022/08/21 10:49:29;;;;;;;6.30;2.20;;;;;;;;;;5007197;28;20487;-72
2022/08/21 10:51:59;;;;;;;6.60;2.00;;;;;;;;;;5003786;28;20531;-73
2022/08/21 10:54:31;;;;;;;6.53;2.10;;;;;;;;;;4992749;28;21080;-72
2022/08/21 10:57:01;;;;;;;8.17;2.03;;;;;;;;;;5008905;28;20458;-71
2022/08/21 10:59:32;;;;;;;7.10;1.90;;;;;;;;;;5008369;28;20477;-71
2022/08/21 11:02:01;;;;;;;5.90;2.13;;;;;;;;;;5005956;28;20455;-71
2022/08/21 11:04:33;;;;;;;7.87;1.90;;;;;;;;;;5006158;28;20842;-72
2022/08/21 11:07:01;;;;;;;8.37;2.70;;;;;;;;;;5005503;28;20443;-73
2022/08/21 11:09:29;;;;;;;7.20;1.90;;;;;;;;;;5007235;28;20491;-73
2022/08/21 11:12:01;;;;;;;6.13;1.50;;;;;;;;;;5003285;28;20957;-72
2022/08/21 11:14:37;;;;;;;7.83;2.03;;;;;;;;;;5009265;28;20516;-72
2022/08/21 11:17:08;;;;;;;5.20;1.70;;;;;;;;;;5009212;28;20454;-72
2022/08/21 11:19:37;;;;;;;8.63;2.20;;;;;;;;;;5007308;28;20487;-71
2022/08/21 11:22:09;;;;;;;6.97;2.60;;;;;;;;;;4997650;28;20451;-72
2022/08/21 11:24:42;;;;;;;7.10;1.90;;;;;;;;;;5000030;28;20999;-71
2022/08/21 11:27:17;;;;;;;6.03;1.37;;;;;;;;;;4988911;28;20551;-71
2022/08/21 11:29:46;;;;;;;5.00;1.60;;;;;;;;;;5007907;28;20557;-71
2022/08/21 11:32:29;;;;;;;6.53;1.90;;;;;;;;;;5009426;28;20471;-72
2022/08/21 11:35:02;;;;;;;6.57;1.80;;;;;;;;;;5008396;28;20982;-71
2022/08/21 11:37:38;;;;;;;5.30;1.57;;;;;;;;;;5007993;28;20597;-71
2022/08/21 11:40:07;;;;;;;8.10;1.80;;;;;;;;;;5008405;28;20563;-70
2022/08/21 11:42:38;;;;;;;4.33;1.37;;;;;;;;;;5008838;28;20447;-71
2022/08/21 11:45:15;;;;;;;5.47;1.40;;;;;;;;;;5009047;28;20459;-72
2022/08/21 11:47:49;;;;;;;4.70;1.63;;;;;;;;;;5008825;28;20483;-72
2022/08/21 11:50:18;;;;;;;4.83;1.53;;;;;;;;;;5009137;28;20460;-72
2022/08/21 11:52:49;;;;;;;5.13;1.33;;;;;;;;;;5007154;28;20542;-72
2022/08/21 11:55:17;;;;;;;7.57;1.90;;;;;;;;;;5008199;28;20459;-72
2022/08/21 11:57:48;;;;;;;4.47;1.40;;;;;;;;;;5007660;28;20459;-72
2022/08/21 12:00:18;;;;;;;4.60;1.47;;;;;;;;;;5004628;28;20448;-71
2022/08/21 12:02:48;;;;;;;6.60;1.40;;;;;;;;;;5007032;28;20447;-71
2022/08/21 12:05:24;;;;;;;4.70;2.33;;;;;;;;;;5005409;28;20842;-71
2022/08/21 12:08:02;;;;;;;4.57;1.33;;;;;;;;;;5005654;28;21083;-72
2022/08/21 12:10:33;;;;;;;4.20;1.30;;;;;;;;;;5006778;28;20450;-72
2022/08/21 12:13:11;;;;;;;4.40;1.50;;;;;;;;;;5004576;28;20928;-71
2022/08/21 12:15:39;;;;;;;3.90;0.93;;;;;;;;;;5006730;28;20475;-71
2022/08/21 12:18:07;;;;;;;5.17;1.37;;;;;;;;;;5008459;28;20492;-71
2022/08/21 12:20:36;;;;;;;6.23;1.10;;;;;;;;;;4995141;28;20456;-71
2022/08/21 12:23:16;;;;;;;4.50;1.27;;;;;;;;;;4986994;28;20959;-71
2022/08/21 12:26:02;;;;;;;5.10;1.60;;;;;;;;;;4995367;28;20563;-71
2022/08/21 12:28:36;;;;;;;4.07;1.53;;;;;;;;;;5004580;28;20561;-72
2022/08/21 12:31:05;;;;;;;3.63;1.10;;;;;;;;;;5004432;28;20627;-71
2022/08/21 12:33:33;;;;;;;3.60;1.30;;;;;;;;;;5004402;28;20477;-71
2022/08/21 12:36:05;;;;;;;3.80;1.50;;;;;;;;;;5007018;28;20486;-72
2022/08/21 12:38:36;;;;;;;3.90;1.27;;;;;;;;;;5007177;28;20764;-71
2022/08/21 12:41:05;;;;;;;3.60;1.00;;;;;;;;;;5009036;28;20455;-72
2022/08/21 12:43:35;;;;;;;4.57;1.43;;;;;;;;;;5008111;28;20574;-71
2022/08/21 12:46:06;;;;;;;4.37;1.73;;;;;;;;;;5009575;28;20550;-72
2022/08/21 12:48:36;;;;;;;8.33;1.67;;;;;;;;;;4993475;28;20491;-72
2022/08/21 12:51:10;;;;;;;5.87;1.20;;;;;;;;;;5003739;28;20927;-72
2022/08/21 12:53:42;;;;;;;4.17;1.30;;;;;;;;;;5006727;28;20438;-72
2022/08/21 12:56:11;;;;;;;3.73;1.50;;;;;;;;;;5009613;28;20538;-72
2022/08/21 12:58:41;;;;;;;9.83;1.50;;;;;;;;;;5007358;28;20455;-72
2022/08/21 13:01:14;;;;;;;7.10;1.50;;;;;;;;;;5010872;28;20455;-71
2022/08/21 13:03:42;;;;;;;5.47;1.20;;;;;;;;;;5000625;28;20601;-71
2022/08/21 13:06:16;;;;;;;5.77;1.30;;;;;;;;;;5010111;28;20451;-71
2022/08/21 13:08:47;;;;;;;5.73;1.50;;;;;;;;;;5007801;28;20499;-70
2022/08/21 13:11:16;;;;;;;5.43;1.50;;;;;;;;;;5007584;28;20467;-72
2022/08/21 13:13:44;;;;;;;4.97;1.60;;;;;;;;;;4996368;28;20501;-72
2022/08/21 13:16:13;;;;;;;7.30;1.30;;;;;;;;;;5008106;28;20817;-72
2022/08/21 13:18:57;;;;;;;5.80;1.60;;;;;;;;;;5006308;28;20451;-72
2022/08/21 13:21:28;;;;;;;4.37;1.20;;;;;;;;;;5006307;28;20792;-70
2022/08/21 13:24:07;;;;;;;3.47;1.10;;;;;;;;;;5006298;28;20470;-72
2022/08/21 13:26:35;;;;;;;3.70;1.03;;;;;;;;;;5021192;28;20474;-72
2022/08/21 13:29:07;;;;;;;4.20;1.27;;;;;;;;;;5041737;28;20921;-71
2022/08/21 13:31:36;;;;;;;6.83;1.13;;;;;;;;;;5007556;28;20901;-71
2022/08/21 13:34:05;;;;;;;3.73;1.10;;;;;;;;;;4990166;28;20463;-71
2022/08/21 13:36:36;;;;;;;3.70;0.87;;;;;;;;;;4989894;28;20471;-71
2022/08/21 13:39:06;;;;;;;3.27;0.83;;;;;;;;;;4986776;28;20752;-71
2022/08/21 13:41:35;;;;;;;4.50;1.10;;;;;;;;;;4986151;28;20462;-73
2022/08/21 13:44:05;;;;;;;4.43;1.10;;;;;;;;;;4987397;28;20463;-72
2022/08/21 13:46:33;;;;;;;4.77;1.10;;;;;;;;;;4988434;28;20844;-71
2022/08/21 13:49:03;;;;;;;5.90;1.23;;;;;;;;;;4986722;28;20781;-72
2022/08/21 13:51:31;;;;;;;4.63;1.10;;;;;;;;;;4987127;28;20992;-72
2022/08/21 13:54:00;;;;;;;4.80;1.00;;;;;;;;;;4989300;28;20755;-72
2022/08/21 13:56:30;;;;;;;4.90;0.90;;;;;;;;;;4988784;28;20598;-72
2022/08/21 13:58:59;;;;;;;4.87;1.00;;;;;;;;;;5027667;28;20519;-72
2022/08/21 14:01:28;;;;;;;3.87;1.13;;;;;;;;;;5111016;28;20476;-72
2022/08/21 14:04:00;;;;;;;4.33;1.30;;;;;;;;;;4988620;28;20896;-72
2022/08/21 14:06:29;;;;;;;4.33;1.10;;;;;;;;;;4989436;28;20480;-72
2022/08/21 14:08:57;;;;;;;4.10;1.10;;;;;;;;;;4988501;28;20492;-72
2022/08/21 14:11:25;;;;;;;4.73;1.23;;;;;;;;;;4986858;28;20513;-71
2022/08/21 14:13:57;;;;;;;3.37;1.10;;;;;;;;;;4998683;28;20760;-71
2022/08/21 14:16:25;;;;;;;4.67;1.30;;;;;;;;;;5009033;28;20465;-71
2022/08/21 14:18:54;;;;;;;3.20;0.93;;;;;;;;;;5006108;28;20503;-72
2022/08/21 14:21:26;;;;;;;4.37;1.10;;;;;;;;;;5005593;28;20433;-72
2022/08/21 14:24:01;;;;;;;3.50;0.90;;;;;;;;;;5006916;28;20524;-71
2022/08/21 14:26:28;;;;;;;5.33;1.57;;;;;;;;;;5007125;28;20458;-72
2022/08/21 14:28:59;;;;;;;5.00;1.17;;;;;;;;;;5008080;28;20741;-72
2022/08/21 14:31:29;;;;;;;4.27;1.27;;;;;;;;;;5008983;28;20554;-72
2022/08/21 14:33:57;;;;;;;4.77;1.07;;;;;;;;;;5007931;28;20528;-72
2022/08/21 14:36:24;;;;;;;4.27;1.30;;;;;;;;;;5009637;28;20452;-72
2022/08/21 14:38:51;;;;;;;3.80;1.17;;;;;;;;;;5008130;28;20912;-72
2022/08/21 14:41:24;;;;;;;6.63;2.17;;;;;;;;;;5006004;28;20550;-72
2022/08/21 14:43:52;;;;;;;4.60;1.33;;;;;;;;;;5009081;28;20465;-71
2022/08/21 14:46:24;;;;;;;6.70;1.20;;;;;;;;;;5008705;28;20724;-71
2022/08/21 14:48:58;;;;;;;3.83;1.20;;;;;;;;;;5006533;28;20491;-72
2022/08/21 14:51:25;;;;;;;6.50;1.40;;;;;;;;;;5008139;28;20455;-72
2022/08/21 14:53:52;;;;;;;3.80;1.30;;;;;;;;;;5010547;28;20850;-71
2022/08/21 14:56:22;;;;;;;3.97;1.90;;;;;;;;;;5008141;28;20474;-72